Time;durP1;ratioP1;P1;durP2;ratioP2;P2;SDS_P1;SDS_P2;PMS_P1;PMS_P2;Temp;Humidity;BMP_temperature;BMP_pressure;BME280_temperature;BME280_humidity;BME280_pressure;Samples;Min_cycle;Max_cycle;Signal;HPM_P1;HPM_P2
2022/08/08 00:01:51;;;;;;;4.70;4.50;;;19.50;87.20;;;;;;5030702;28;20860;-73
2022/08/08 00:04:41;;;;;;;5.20;4.90;;;19.50;86.90;;;;;;5028438;28;20432;-73
2022/08/08 00:07:19;;;;;;;5.13;4.87;;;19.40;87.20;;;;;;5021901;28;20469;-74
2022/08/08 00:10:08;;;;;;;5.50;5.20;;;19.40;87.50;;;;;;5032735;28;20471;-74
2022/08/08 00:12:50;;;;;;;5.53;5.13;;;19.40;87.70;;;;;;5041636;28;20474;-73
2022/08/08 00:15:20;;;;;;;5.67;5.17;;;19.40;88.50;;;;;;5028875;28;20559;-73
2022/08/08 00:17:58;;;;;;;5.00;4.60;;;19.30;89.30;;;;;;5034760;28;20826;-73
2022/08/08 00:20:29;;;;;;;5.00;4.63;;;19.30;88.30;;;;;;5012151;28;20449;-73
2022/08/08 00:23:01;;;;;;;4.77;4.47;;;19.20;88.70;;;;;;5017491;28;20440;-73
2022/08/08 00:25:35;;;;;;;5.03;4.73;;;19.00;89.70;;;;;;5032293;28;20408;-74
2022/08/08 00:28:04;;;;;;;4.60;4.33;;;19.00;90.30;;;;;;5020639;28;20440;-73
2022/08/08 00:30:34;;;;;;;4.57;4.33;;;18.90;90.30;;;;;;5016170;28;20994;-73
2022/08/08 00:33:22;;;;;;;5.13;4.83;;;18.90;90.50;;;;;;5028969;28;20441;-73
2022/08/08 00:35:51;;;;;;;5.40;5.10;;;18.80;90.60;;;;;;5027061;28;20490;-73
2022/08/08 00:38:23;;;;;;;4.80;4.50;;;18.80;90.90;;;;;;5040668;28;20459;-73
2022/08/08 00:40:51;;;;;;;5.27;4.87;;;18.70;91.00;;;;;;5019855;28;20948;-73
2022/08/08 00:43:27;;;;;;;5.20;4.90;;;18.60;91.50;;;;;;5044821;28;20443;-73
2022/08/08 00:46:17;;;;;;;4.80;4.50;;;18.70;91.90;;;;;;5034712;28;20428;-73
2022/08/08 00:48:54;;;;;;;5.03;4.83;;;18.70;91.90;;;;;;5035404;28;20423;-73
2022/08/08 00:51:58;;;;;;;5.60;5.23;;;18.70;91.50;;;;;;5054052;28;20520;-73
2022/08/08 00:54:57;;;;;;;5.37;4.97;;;18.70;91.50;;;;;;5022534;28;20484;-73
2022/08/08 00:58:07;;;;;;;4.97;4.67;;;18.60;91.70;;;;;;5039000;28;20874;-73
2022/08/08 01:00:46;;;;;;;5.83;5.33;;;18.60;92.40;;;;;;5045178;28;20461;-73
2022/08/08 01:03:37;;;;;;;4.70;4.50;;;18.60;92.10;;;;;;5021407;28;20439;-73
2022/08/08 01:06:21;;;;;;;5.17;4.77;;;18.60;92.30;;;;;;5015187;28;20451;-73
2022/08/08 01:09:02;;;;;;;4.90;4.60;;;18.70;92.20;;;;;;5012281;28;20437;-73
2022/08/08 01:11:58;;;;;;;5.10;4.80;;;18.70;92.50;;;;;;5016796;28;20442;-73
2022/08/08 01:14:30;;;;;;;5.47;5.17;;;18.70;92.60;;;;;;5031016;28;20448;-73
2022/08/08 01:17:56;;;;;;;4.80;4.50;;;18.60;92.40;;;;;;5027016;28;20791;-73
2022/08/08 01:21:06;;;;;;;4.80;4.50;;;18.60;92.30;;;;;;5025396;28;20448;-73
2022/08/08 01:23:37;;;;;;;4.50;4.20;;;18.60;92.40;;;;;;5032617;28;20468;-73
2022/08/08 01:26:24;;;;;;;4.83;4.53;;;18.60;92.70;;;;;;5032949;28;20498;-73
2022/08/08 01:28:55;;;;;;;5.10;4.80;;;18.60;92.70;;;;;;5024417;28;20468;-73
2022/08/08 01:31:55;;;;;;;4.63;4.33;;;18.60;92.60;;;;;;5025483;28;20438;-72
2022/08/08 01:34:39;;;;;;;4.53;4.33;;;18.60;92.70;;;;;;5027859;28;20440;-73
2022/08/08 01:37:41;;;;;;;4.13;3.83;;;18.50;92.30;;;;;;5028187;28;20556;-73
2022/08/08 01:40:39;;;;;;;4.70;4.30;;;18.50;92.40;;;;;;5029579;28;20911;-73
2022/08/08 01:43:31;;;;;;;5.23;4.83;;;18.50;92.80;;;;;;5033620;28;20474;-73
2022/08/08 01:46:06;;;;;;;4.50;4.20;;;18.50;93.10;;;;;;5025355;28;21001;-73
2022/08/08 01:48:52;;;;;;;4.80;4.50;;;18.50;93.20;;;;;;5052613;28;20490;-73
2022/08/08 01:51:46;;;;;;;5.00;4.70;;;18.50;93.80;;;;;;5035912;28;21023;-73
2022/08/08 01:54:36;;;;;;;5.10;4.80;;;18.40;93.30;;;;;;5034067;28;20418;-73
2022/08/08 01:57:16;;;;;;;4.83;4.43;;;18.40;94.00;;;;;;5026623;28;20510;-73
2022/08/08 02:00:15;;;;;;;5.30;4.90;;;18.40;93.80;;;;;;5014238;28;20421;-73
2022/08/08 02:03:28;;;;;;;4.87;4.63;;;18.30;93.40;;;;;;5049944;28;20480;-73
2022/08/08 02:06:04;;;;;;;4.53;4.33;;;18.30;93.50;;;;;;5014204;28;20485;-73
2022/08/08 02:09:05;;;;;;;4.40;4.20;;;18.30;93.40;;;;;;5011402;28;20441;-73
2022/08/08 02:11:38;;;;;;;5.10;4.60;;;18.30;93.40;;;;;;5005337;28;20443;-73
2022/08/08 02:14:18;;;;;;;5.00;4.60;;;18.20;93.20;;;;;;5013577;28;20398;-72
2022/08/08 02:17:08;;;;;;;4.60;4.40;;;18.20;93.90;;;;;;5017405;28;20474;-73
2022/08/08 02:19:56;;;;;;;4.70;4.40;;;18.20;94.00;;;;;;5027556;28;20491;-73
2022/08/08 02:22:48;;;;;;;4.73;4.43;;;18.20;93.90;;;;;;5032034;28;20452;-73
2022/08/08 02:25:23;;;;;;;4.80;4.50;;;18.10;94.00;;;;;;5038238;28;20456;-73
2022/08/08 02:28:07;;;;;;;4.80;4.40;;;18.10;94.40;;;;;;5042810;28;20432;-73
2022/08/08 02:30:51;;;;;;;4.50;4.20;;;18.10;94.40;;;;;;5028403;28;20671;-73
2022/08/08 02:33:36;;;;;;;4.60;4.37;;;18.00;94.20;;;;;;5013985;28;20477;-73
2022/08/08 02:36:23;;;;;;;4.93;4.63;;;18.00;94.50;;;;;;5028037;28;20444;-73
2022/08/08 02:39:19;;;;;;;5.03;4.73;;;18.00;94.40;;;;;;5032757;28;20429;-73
2022/08/08 02:42:19;;;;;;;5.50;5.00;;;18.00;94.90;;;;;;5030329;28;20437;-73
2022/08/08 02:45:12;;;;;;;5.17;4.77;;;18.00;94.80;;;;;;5031018;28;20475;-73
2022/08/08 02:48:02;;;;;;;4.50;4.20;;;18.00;94.70;;;;;;5013700;28;20411;-73
2022/08/08 02:50:46;;;;;;;4.50;4.30;;;18.00;94.90;;;;;;5026396;28;20493;-72
2022/08/08 02:53:45;;;;;;;4.90;4.70;;;17.90;94.60;;;;;;5032251;28;20461;-73
2022/08/08 02:56:20;;;;;;;4.50;4.30;;;17.90;95.00;;;;;;5032244;28;20437;-73
2022/08/08 02:59:04;;;;;;;4.87;4.57;;;17.90;94.70;;;;;;5032197;28;20470;-73
2022/08/08 03:01:42;;;;;;;5.60;5.30;;;17.80;94.70;;;;;;5019771;28;20450;-73
2022/08/08 03:04:45;;;;;;;4.77;4.47;;;17.80;95.20;;;;;;5029928;28;20452;-73
2022/08/08 03:07:51;;;;;;;5.00;4.70;;;17.70;95.10;;;;;;5022399;28;20935;-73
2022/08/08 03:10:55;;;;;;;5.10;4.80;;;17.70;95.30;;;;;;5030301;28;20488;-73
2022/08/08 03:13:31;;;;;;;4.93;4.63;;;17.70;95.60;;;;;;5013128;28;20437;-73
2022/08/08 03:16:38;;;;;;;5.10;4.80;;;17.60;95.60;;;;;;5012674;28;20429;-73
2022/08/08 03:19:21;;;;;;;4.90;4.60;;;17.60;95.90;;;;;;5014428;28;20502;-73
2022/08/08 03:21:47;;;;;;;4.83;4.53;;;17.60;95.60;;;;;;5029362;28;20444;-73
2022/08/08 03:24:19;;;;;;;5.40;5.00;;;17.50;95.70;;;;;;5027065;28;20442;-73
2022/08/08 03:26:51;;;;;;;4.90;4.60;;;17.50;96.00;;;;;;5046526;28;20197;-73
2022/08/08 03:29:22;;;;;;;5.60;5.20;;;17.50;96.10;;;;;;5031600;28;20433;-73
2022/08/08 03:34:34;;;;;;;4.90;4.60;;;17.50;95.90;;;;;;5031140;28;20460;-73
2022/08/08 03:37:00;;;;;;;5.73;5.33;;;17.50;96.00;;;;;;5024424;28;20472;-73
2022/08/08 03:39:26;;;;;;;6.23;5.83;;;17.60;96.10;;;;;;5020483;28;20445;-73
2022/08/08 03:41:51;;;;;;;7.10;6.70;;;17.50;95.90;;;;;;5029373;28;20451;-73
2022/08/08 03:44:20;;;;;;;7.27;6.70;;;17.40;96.00;;;;;;5029460;28;20471;-73
2022/08/08 03:46:48;;;;;;;7.40;6.90;;;17.40;96.00;;;;;;5037748;28;20194;-73
2022/08/08 03:49:20;;;;;;;5.93;5.63;;;17.40;96.20;;;;;;5031450;28;20433;-73
2022/08/08 03:51:50;;;;;;;7.50;7.00;;;17.40;96.20;;;;;;5031033;28;20465;-73
2022/08/08 03:54:19;;;;;;;6.70;6.30;;;17.40;96.40;;;;;;5024626;28;20531;-73
2022/08/08 03:56:45;;;;;;;7.13;6.73;;;17.40;96.10;;;;;;5043737;28;20525;-73
2022/08/08 03:59:11;;;;;;;6.50;6.10;;;17.40;96.30;;;;;;5029392;28;20444;-73
2022/08/08 04:01:39;;;;;;;6.70;6.30;;;17.40;96.10;;;;;;5021422;28;20452;-73
2022/08/08 04:04:05;;;;;;;7.23;6.83;;;17.40;96.50;;;;;;5016103;28;20905;-73
2022/08/08 04:06:32;;;;;;;7.03;6.53;;;17.40;96.60;;;;;;5031703;28;20432;-73
2022/08/08 04:08:59;;;;;;;7.07;6.63;;;17.30;96.60;;;;;;5024617;28;20440;-72
2022/08/08 04:11:27;;;;;;;6.60;6.10;;;17.30;96.50;;;;;;5017201;28;20429;-72
2022/08/08 04:13:53;;;;;;;6.33;5.93;;;17.30;96.80;;;;;;5050222;28;20412;-72
2022/08/08 04:16:19;;;;;;;7.07;6.70;;;17.30;96.70;;;;;;5041974;28;20197;-72
2022/08/08 04:18:47;;;;;;;6.50;6.00;;;17.30;96.70;;;;;;5032087;28;20321;-72
2022/08/08 04:21:14;;;;;;;5.73;5.43;;;17.30;96.90;;;;;;5029472;28;20510;-72
2022/08/08 04:23:40;;;;;;;6.47;5.97;;;17.30;96.60;;;;;;5015449;28;20468;-71
2022/08/08 04:26:06;;;;;;;6.90;6.50;;;17.20;96.60;;;;;;5015506;28;20441;-72
2022/08/08 04:28:32;;;;;;;6.47;5.87;;;17.20;96.70;;;;;;5033333;28;20192;-72
2022/08/08 04:30:58;;;;;;;7.80;7.20;;;17.10;97.20;;;;;;5017443;28;20436;-72
2022/08/08 04:33:24;;;;;;;5.90;5.50;;;17.10;97.10;;;;;;5030295;28;20428;-70
2022/08/08 04:35:49;;;;;;;7.33;6.80;;;17.10;97.60;;;;;;5031560;28;20205;-72
2022/08/08 04:38:18;;;;;;;7.50;6.90;;;17.10;97.50;;;;;;5030326;28;20256;-72
2022/08/08 04:40:44;;;;;;;7.33;6.83;;;17.10;97.30;;;;;;5030479;28;20532;-72
2022/08/08 04:43:10;;;;;;;6.67;6.20;;;17.20;97.30;;;;;;5027820;28;21138;-71
2022/08/08 04:45:36;;;;;;;7.20;6.77;;;17.20;97.30;;;;;;5036901;28;20257;-71
2022/08/08 04:48:02;;;;;;;5.90;5.40;;;17.20;97.10;;;;;;5050932;28;20265;-72
2022/08/08 04:50:27;;;;;;;7.97;7.47;;;17.20;97.20;;;;;;5022478;28;20230;-72
2022/08/08 04:52:54;;;;;;;6.60;6.30;;;17.20;97.30;;;;;;5015956;28;20473;-72
2022/08/08 04:55:22;;;;;;;7.27;6.73;;;17.30;97.20;;;;;;5034337;28;20429;-72
2022/08/08 04:57:48;;;;;;;10.27;7.40;;;17.30;97.30;;;;;;5040285;28;20475;-72
2022/08/08 05:00:14;;;;;;;6.77;6.37;;;17.30;97.30;;;;;;5035363;28;20527;-72
2022/08/08 05:02:40;;;;;;;6.83;6.43;;;17.30;97.10;;;;;;5027189;28;20187;-72
2022/08/08 05:05:08;;;;;;;6.63;5.53;;;17.30;97.00;;;;;;5024825;28;20433;-72
2022/08/08 05:07:34;;;;;;;9.53;8.70;;;17.40;97.20;;;;;;5036310;28;20789;-72
2022/08/08 05:10:00;;;;;;;7.00;6.50;;;17.40;97.10;;;;;;5020018;28;20520;-72
2022/08/08 05:12:26;;;;;;;7.93;7.40;;;17.40;96.80;;;;;;5031544;28;20178;-72
2022/08/08 05:14:51;;;;;;;6.03;5.63;;;17.40;97.10;;;;;;5020582;28;20187;-72
2022/08/08 05:17:17;;;;;;;5.53;5.13;;;17.50;97.20;;;;;;5029227;28;20217;-72
2022/08/08 05:19:43;;;;;;;8.97;8.40;;;17.40;97.00;;;;;;5026422;28;20178;-72
2022/08/08 05:22:09;;;;;;;6.40;6.00;;;17.40;97.00;;;;;;5024235;28;20187;-74
2022/08/08 05:24:36;;;;;;;7.50;6.90;;;17.50;99.90;;;;;;5024171;28;20187;-73
2022/08/08 05:27:01;;;;;;;7.90;7.50;;;17.90;99.90;;;;;;5028754;28;20541;-74
2022/08/08 05:29:27;;;;;;;7.53;6.83;;;18.40;99.90;;;;;;5032008;28;20448;-73
2022/08/08 05:31:53;;;;;;;7.33;6.83;;;18.70;99.90;;;;;;5030237;28;20255;-71
2022/08/08 05:34:33;;;;;;;7.90;7.10;;;19.00;99.70;;;;;;5039268;28;20771;-71
2022/08/08 05:37:02;;;;;;;7.70;7.00;;;19.10;96.10;;;;;;5042201;28;20208;-70
2022/08/08 05:39:28;;;;;;;8.43;6.97;;;19.00;94.20;;;;;;5028792;28;20501;-70
2022/08/08 05:41:57;;;;;;;6.27;5.77;;;18.90;93.80;;;;;;5026649;28;20437;-70
2022/08/08 05:44:28;;;;;;;8.00;7.50;;;19.00;99.90;;;;;;5035625;28;20583;-70
2022/08/08 05:46:55;;;;;;;5.10;4.70;;;19.30;97.50;;;;;;5029631;28;20520;-71
2022/08/08 05:49:21;;;;;;;8.97;8.30;;;19.60;98.50;;;;;;5025957;28;20440;-70
2022/08/08 05:51:47;;;;;;;8.87;8.07;;;19.70;96.70;;;;;;5033133;28;20461;-70
2022/08/08 05:54:14;;;;;;;15.13;13.70;;;19.50;93.30;;;;;;5030501;28;20194;-70
2022/08/08 05:56:42;;;;;;;8.33;7.70;;;19.30;93.20;;;;;;5031020;28;20500;-70
2022/08/08 05:59:28;;;;;;;6.07;5.67;;;19.30;95.20;;;;;;5031808;28;20433;-70
2022/08/08 06:01:55;;;;;;;8.10;7.53;;;19.40;97.60;;;;;;5019728;28;20515;-69
2022/08/08 06:04:28;;;;;;;7.73;7.23;;;19.70;97.20;;;;;;5030277;28;20444;-69
2022/08/08 06:06:56;;;;;;;9.83;9.13;;;19.80;94.90;;;;;;5024528;28;20439;-70
2022/08/08 06:09:28;;;;;;;10.87;9.97;;;19.60;93.10;;;;;;5024191;28;20433;-69
2022/08/08 06:12:13;;;;;;;8.80;8.10;;;19.40;92.70;;;;;;5039971;28;20429;-70
2022/08/08 06:14:40;;;;;;;10.63;9.90;;;19.20;94.50;;;;;;5019790;28;20433;-70
2022/08/08 06:17:06;;;;;;;6.03;5.63;;;19.40;97.00;;;;;;5017133;28;20480;-70
2022/08/08 06:19:33;;;;;;;9.10;8.60;;;19.60;97.00;;;;;;5019576;28;20446;-73
2022/08/08 06:21:59;;;;;;;8.43;7.83;;;19.90;96.30;;;;;;5021976;28;20528;-73
2022/08/08 06:24:24;;;;;;;9.80;8.97;;;20.10;95.70;;;;;;5017148;28;21021;-73
2022/08/08 06:27:08;;;;;;;10.17;9.37;;;20.30;95.90;;;;;;5023766;28;20666;-73
2022/08/08 06:29:57;;;;;;;8.53;7.43;;;20.50;95.40;;;;;;5018713;28;20186;-73
2022/08/08 06:32:29;;;;;;;7.40;6.97;;;20.60;95.40;;;;;;5028624;28;20440;-71
2022/08/08 06:34:58;;;;;;;12.17;11.13;;;20.90;95.10;;;;;;5018756;28;20431;-71
2022/08/08 06:37:30;;;;;;;7.17;6.50;;;21.10;94.60;;;;;;5024247;28;20475;-71
2022/08/08 06:40:03;;;;;;;8.43;7.70;;;21.10;94.30;;;;;;5028375;28;20531;-72
2022/08/08 06:42:35;;;;;;;8.10;7.50;;;21.30;94.00;;;;;;5033697;28;20398;-71
2022/08/08 06:45:06;;;;;;;9.67;9.03;;;21.40;93.70;;;;;;5031111;28;20435;-71
2022/08/08 06:47:34;;;;;;;8.67;7.70;;;21.60;93.40;;;;;;5031145;28;20975;-71
2022/08/08 06:50:00;;;;;;;9.20;8.43;;;21.80;93.10;;;;;;5028304;28;20491;-72
2022/08/08 06:52:26;;;;;;;11.33;10.40;;;21.90;92.80;;;;;;5016601;28;20478;-70
2022/08/08 06:54:57;;;;;;;10.07;7.90;;;22.00;92.40;;;;;;5032528;28;20497;-70
2022/08/08 06:57:25;;;;;;;9.77;8.97;;;22.00;92.60;;;;;;5021917;28;20516;-70
2022/08/08 06:59:54;;;;;;;11.63;9.13;;;22.10;92.70;;;;;;5031150;28;20421;-72
2022/08/08 07:02:23;;;;;;;12.13;10.97;;;22.20;92.50;;;;;;5030412;28;20440;-69
2022/08/08 07:05:05;;;;;;;13.30;12.30;;;22.20;90.80;;;;;;5031667;28;20493;-69
2022/08/08 07:07:51;;;;;;;12.97;11.77;;;22.20;90.60;;;;;;5027936;28;20440;-68
2022/08/08 07:10:22;;;;;;;11.47;10.27;;;22.10;91.40;;;;;;5025812;28;20425;-68
2022/08/08 07:12:54;;;;;;;8.70;7.90;;;22.00;90.50;;;;;;5027616;28;20524;-68
2022/08/08 07:15:52;;;;;;;7.47;6.90;;;22.00;92.90;;;;;;5021844;28;21070;-68
2022/08/08 07:18:56;;;;;;;8.70;8.07;;;22.10;93.00;;;;;;5025555;28;20489;-68
2022/08/08 07:21:28;;;;;;;9.10;8.27;;;22.20;93.00;;;;;;5018893;28;20932;-68
2022/08/08 07:24:07;;;;;;;7.70;7.10;;;22.40;90.80;;;;;;5027626;28;20503;-69
2022/08/08 07:26:36;;;;;;;12.03;6.97;;;22.40;92.60;;;;;;5019027;28;20851;-68
2022/08/08 07:29:04;;;;;;;6.70;6.20;;;22.50;92.60;;;;;;5036299;28;20919;-71
2022/08/08 07:31:30;;;;;;;11.47;10.43;;;22.60;92.10;;;;;;5029495;28;20502;-73
2022/08/08 07:33:57;;;;;;;7.90;6.90;;;22.60;89.10;;;;;;5025426;28;20437;-73
2022/08/08 07:36:24;;;;;;;8.20;7.60;;;22.40;86.90;;;;;;5026491;28;20943;-73
2022/08/08 07:38:51;;;;;;;10.30;9.40;;;22.30;86.90;;;;;;5026285;28;20575;-73
2022/08/08 07:41:18;;;;;;;8.57;7.97;;;22.20;89.20;;;;;;5035114;28;20433;-73
2022/08/08 07:43:44;;;;;;;10.70;9.70;;;22.10;87.70;;;;;;5033048;28;20515;-72
2022/08/08 07:46:10;;;;;;;10.23;9.23;;;21.90;87.10;;;;;;5024814;28;20511;-69
2022/08/08 07:48:36;;;;;;;10.03;9.17;;;21.30;88.00;;;;;;5031100;28;20787;-68
2022/08/08 07:51:02;;;;;;;9.03;8.33;;;21.30;90.50;;;;;;5027949;28;20469;-74
2022/08/08 07:53:39;;;;;;;9.97;9.17;;;21.40;90.70;;;;;;5022735;28;20456;-69
2022/08/08 07:56:09;;;;;;;8.40;7.70;;;21.30;89.80;;;;;;5030205;28;20482;-71
2022/08/08 07:58:39;;;;;;;9.40;8.70;;;21.30;90.80;;;;;;5024417;28;20505;-71
2022/08/08 08:01:09;;;;;;;9.63;8.83;;;21.40;90.80;;;;;;5017059;28;20483;-71
2022/08/08 08:03:52;;;;;;;8.80;7.90;;;21.40;90.50;;;;;;5025509;28;20917;-71
2022/08/08 08:06:19;;;;;;;9.10;8.37;;;21.50;90.60;;;;;;5027101;28;20440;-71
2022/08/08 08:08:55;;;;;;;7.60;7.00;;;21.70;90.50;;;;;;5029627;28;20432;-70
2022/08/08 08:11:22;;;;;;;8.93;7.13;;;21.80;90.80;;;;;;5036700;28;20631;-70
2022/08/08 08:14:07;;;;;;;8.27;7.47;;;21.90;89.60;;;;;;5027563;28;20428;-71
2022/08/08 08:16:40;;;;;;;7.50;6.97;;;21.90;90.40;;;;;;5026851;28;20424;-70
2022/08/08 08:19:08;;;;;;;9.37;8.67;;;22.10;90.40;;;;;;5029648;28;20433;-72
2022/08/08 08:21:46;;;;;;;7.40;6.63;;;22.30;90.00;;;;;;5023045;28;20441;-73
2022/08/08 08:24:13;;;;;;;10.67;7.67;;;22.40;90.20;;;;;;5023398;28;20495;-72
2022/08/08 08:26:39;;;;;;;7.80;6.83;;;22.60;90.10;;;;;;5024717;28;20476;-70
2022/08/08 08:29:05;;;;;;;6.43;5.90;;;22.70;90.30;;;;;;5041805;28;20434;-74
2022/08/08 08:31:31;;;;;;;7.90;7.40;;;22.80;90.50;;;;;;5024865;28;20472;-71
2022/08/08 08:33:57;;;;;;;7.63;6.97;;;23.00;89.50;;;;;;5025429;28;20944;-70
2022/08/08 08:36:23;;;;;;;6.70;6.20;;;23.10;89.80;;;;;;5028243;28;20411;-73
2022/08/08 08:38:50;;;;;;;6.90;6.30;;;23.20;89.40;;;;;;5030964;28;20239;-71
2022/08/08 08:41:18;;;;;;;8.80;8.00;;;23.30;87.00;;;;;;5026556;28;20460;-70
2022/08/08 08:43:45;;;;;;;8.33;7.53;;;23.50;85.60;;;;;;5027033;28;20452;-70
2022/08/08 08:46:12;;;;;;;6.97;6.33;;;23.60;89.30;;;;;;5024664;28;20947;-72
2022/08/08 08:48:40;;;;;;;8.67;7.87;;;23.80;89.00;;;;;;5045135;28;20424;-71
2022/08/08 08:51:13;;;;;;;8.30;7.63;;;23.90;88.10;;;;;;5026404;28;20563;-73
2022/08/08 08:53:51;;;;;;;6.70;6.30;;;24.10;86.20;;;;;;5027011;28;20507;-69
2022/08/08 08:56:19;;;;;;;6.70;6.07;;;24.10;83.60;;;;;;5019010;28;20432;-71
2022/08/08 08:58:47;;;;;;;7.27;6.60;;;24.30;84.10;;;;;;5028042;28;20799;-70
2022/08/08 09:01:15;;;;;;;7.83;7.13;;;24.40;85.40;;;;;;5029783;28;20928;-71
2022/08/08 09:03:49;;;;;;;7.43;7.03;;;24.50;80.80;;;;;;5036774;28;20493;-70
2022/08/08 09:06:27;;;;;;;7.70;7.10;;;24.50;79.70;;;;;;5032847;28;20424;-70
2022/08/08 09:09:15;;;;;;;6.97;6.37;;;24.60;80.80;;;;;;5031767;28;20432;-69
2022/08/08 09:11:44;;;;;;;8.67;5.90;;;24.70;82.00;;;;;;5031601;28;20432;-71
2022/08/08 09:14:11;;;;;;;7.23;6.53;;;24.90;81.90;;;;;;5019499;28;20440;-72
2022/08/08 09:16:37;;;;;;;14.30;6.73;;;25.00;82.70;;;;;;5029407;28;20460;-70
2022/08/08 09:19:04;;;;;;;6.83;5.70;;;25.20;81.20;;;;;;5018146;28;20471;-70
2022/08/08 09:21:30;;;;;;;6.77;5.80;;;25.40;77.10;;;;;;5029238;28;20552;-70
2022/08/08 09:23:57;;;;;;;6.40;5.90;;;25.60;77.50;;;;;;5032570;28;20493;-70
2022/08/08 09:26:47;;;;;;;7.17;6.57;;;25.80;77.10;;;;;;5027869;28;20472;-69
2022/08/08 09:29:21;;;;;;;6.00;5.50;;;25.90;72.30;;;;;;5030011;28;20468;-69
2022/08/08 09:32:01;;;;;;;6.27;5.87;;;26.00;74.10;;;;;;5029746;28;20908;-69
2022/08/08 09:34:30;;;;;;;6.60;6.00;;;26.10;74.00;;;;;;5034553;28;20557;-69
2022/08/08 09:37:07;;;;;;;6.40;6.00;;;26.20;72.60;;;;;;5031448;28;20504;-69
2022/08/08 09:39:59;;;;;;;5.60;5.30;;;26.40;70.70;;;;;;5033797;28;20413;-69
2022/08/08 09:42:35;;;;;;;5.70;5.30;;;26.50;69.20;;;;;;5033611;28;20504;-69
2022/08/08 09:45:05;;;;;;;5.80;5.20;;;26.70;69.30;;;;;;5034651;28;20412;-69
2022/08/08 09:47:33;;;;;;;5.60;5.20;;;26.80;70.80;;;;;;5033041;28;20924;-69
2022/08/08 09:50:03;;;;;;;6.30;5.77;;;26.90;68.50;;;;;;5034742;28;20515;-69
2022/08/08 09:52:31;;;;;;;5.60;5.17;;;27.10;65.60;;;;;;5033505;28;20460;-69
2022/08/08 09:55:00;;;;;;;6.20;5.60;;;27.10;65.00;;;;;;5034514;28;20422;-69
2022/08/08 09:57:34;;;;;;;6.10;5.60;;;27.20;63.00;;;;;;5032244;28;20927;-69
2022/08/08 10:00:01;;;;;;;7.10;6.50;;;27.30;63.60;;;;;;5034505;28;20420;-69
2022/08/08 10:02:36;;;;;;;5.57;5.17;;;27.40;64.20;;;;;;5033583;28;20421;-69
2022/08/08 10:05:15;;;;;;;7.03;6.53;;;27.40;63.50;;;;;;5034505;28;20411;-68
2022/08/08 10:07:59;;;;;;;7.03;6.53;;;27.40;63.00;;;;;;5032070;28;20531;-69
2022/08/08 10:10:29;;;;;;;6.27;5.93;;;27.50;62.40;;;;;;5033531;28;20405;-69
2022/08/08 10:12:56;;;;;;;6.93;6.33;;;27.50;59.40;;;;;;5034217;28;20424;-69
2022/08/08 10:15:37;;;;;;;6.07;5.77;;;27.50;59.70;;;;;;5033368;28;20819;-69
2022/08/08 10:18:03;;;;;;;7.53;6.97;;;27.50;62.50;;;;;;5032628;28;20975;-70
2022/08/08 10:20:44;;;;;;;6.80;6.40;;;27.50;62.70;;;;;;5033653;28;20482;-69
2022/08/08 10:23:15;;;;;;;6.77;6.17;;;27.60;64.10;;;;;;5015970;28;20274;-72
2022/08/08 10:25:45;;;;;;;9.80;6.20;;;27.60;59.70;;;;;;5012046;28;20818;-69
2022/08/08 10:28:20;;;;;;;6.10;5.70;;;27.70;59.10;;;;;;5033535;28;20855;-73
2022/08/08 10:30:58;;;;;;;6.20;5.80;;;27.70;60.00;;;;;;5033894;28;20443;-69
2022/08/08 10:33:31;;;;;;;7.43;6.83;;;27.80;62.30;;;;;;5032621;28;20784;-69
2022/08/08 10:36:02;;;;;;;6.50;6.10;;;27.90;60.50;;;;;;5032203;28;20405;-69
2022/08/08 10:38:31;;;;;;;5.20;4.90;;;28.10;59.40;;;;;;5031113;28;20802;-69
2022/08/08 10:41:02;;;;;;;4.93;4.73;;;28.10;58.70;;;;;;5028854;28;20486;-71
2022/08/08 10:43:39;;;;;;;7.03;6.40;;;28.20;59.40;;;;;;5031954;28;20484;-71
2022/08/08 10:46:24;;;;;;;6.43;5.93;;;28.20;56.80;;;;;;5029413;28;20913;-71
2022/08/08 10:48:53;;;;;;;5.67;5.17;;;28.10;55.90;;;;;;5033631;28;20401;-69
2022/08/08 10:51:19;;;;;;;5.73;5.23;;;28.20;57.20;;;;;;5031078;28;20551;-70
2022/08/08 10:53:51;;;;;;;6.40;6.00;;;28.30;57.80;;;;;;5033462;28;20420;-69
2022/08/08 10:56:17;;;;;;;5.00;4.70;;;28.40;56.00;;;;;;5031303;28;20435;-69
2022/08/08 10:58:43;;;;;;;7.43;5.87;;;28.30;57.40;;;;;;5031597;28;20464;-69
2022/08/08 11:01:10;;;;;;;6.33;5.93;;;28.50;59.90;;;;;;5032905;28;20540;-68
2022/08/08 11:03:44;;;;;;;6.00;5.60;;;28.60;59.40;;;;;;5024125;28;20526;-69
2022/08/08 11:06:11;;;;;;;6.20;5.63;;;28.70;57.90;;;;;;5031432;28;20436;-69
2022/08/08 11:08:40;;;;;;;6.60;5.97;;;28.70;57.30;;;;;;5031163;28;20520;-69
2022/08/08 11:11:08;;;;;;;5.57;5.27;;;28.90;56.80;;;;;;5026556;28;20512;-78
2022/08/08 11:13:42;;;;;;;5.77;5.47;;;29.00;58.30;;;;;;5045131;28;20493;-78
2022/08/08 11:16:28;;;;;;;6.33;5.90;;;29.20;57.80;;;;;;5049425;28;20408;-78
2022/08/08 11:18:56;;;;;;;6.57;6.07;;;29.20;55.80;;;;;;5033408;28;20457;-78
2022/08/08 11:21:23;;;;;;;6.63;6.23;;;29.10;55.00;;;;;;5031942;28;20440;-78
2022/08/08 11:23:51;;;;;;;6.67;6.37;;;29.10;55.30;;;;;;5033176;28;20439;-78
2022/08/08 11:26:18;;;;;;;6.30;6.00;;;29.00;55.00;;;;;;5030805;28;20811;-76
2022/08/08 11:28:44;;;;;;;7.83;7.10;;;28.90;54.80;;;;;;5033157;28;20462;-77
2022/08/08 11:31:14;;;;;;;5.97;5.57;;;28.90;56.30;;;;;;5052527;28;20487;-78
2022/08/08 11:33:45;;;;;;;6.20;5.70;;;29.00;56.70;;;;;;5035982;28;20433;-77
2022/08/08 11:36:13;;;;;;;6.97;6.57;;;29.00;54.70;;;;;;5032994;28;20402;-78
2022/08/08 11:38:50;;;;;;;6.60;6.20;;;29.00;52.80;;;;;;5030512;28;20468;-78
2022/08/08 11:41:20;;;;;;;6.10;5.80;;;28.90;52.10;;;;;;5031272;28;20927;-78
2022/08/08 11:43:47;;;;;;;6.23;5.83;;;28.70;52.70;;;;;;5051935;28;20408;-77
2022/08/08 11:46:14;;;;;;;5.70;5.30;;;28.70;53.00;;;;;;5043845;28;20515;-74
2022/08/08 11:48:42;;;;;;;5.93;5.50;;;28.70;53.40;;;;;;5026695;28;20904;-77
2022/08/08 11:51:09;;;;;;;6.00;5.60;;;28.90;55.00;;;;;;5030035;28;20516;-78
2022/08/08 11:53:36;;;;;;;5.40;5.10;;;29.00;54.20;;;;;;5030761;28;20475;-77
2022/08/08 11:56:01;;;;;;;5.47;5.07;;;29.20;55.40;;;;;;5034237;28;20449;-78
2022/08/08 11:58:34;;;;;;;7.23;6.60;;;29.30;54.90;;;;;;5044055;28;20864;-77
2022/08/08 12:01:04;;;;;;;6.30;5.80;;;29.40;55.70;;;;;;5031551;28;20633;-77
2022/08/08 12:03:38;;;;;;;5.97;5.57;;;29.50;54.90;;;;;;5031989;28;20429;-78
2022/08/08 12:06:14;;;;;;;6.00;5.60;;;29.50;54.40;;;;;;5032870;28;20397;-77
2022/08/08 12:08:40;;;;;;;5.80;5.40;;;29.50;54.50;;;;;;5035826;28;20420;-78
2022/08/08 12:11:15;;;;;;;6.80;6.40;;;29.50;52.00;;;;;;5033540;28;20486;-77
2022/08/08 12:13:41;;;;;;;6.20;5.70;;;29.50;54.10;;;;;;5029576;28;20638;-78
2022/08/08 12:16:16;;;;;;;6.33;5.93;;;29.50;54.10;;;;;;5031803;28;20416;-77
2022/08/08 12:18:47;;;;;;;6.70;6.20;;;29.60;53.70;;;;;;5013068;28;20441;-77
2022/08/08 12:21:39;;;;;;;6.73;6.17;;;29.70;54.80;;;;;;5028526;28;20429;-77
2022/08/08 12:24:06;;;;;;;6.10;5.80;;;29.80;52.30;;;;;;5025949;28;20449;-77
2022/08/08 12:26:46;;;;;;;5.93;5.60;;;29.90;52.10;;;;;;5024721;28;20441;-78
2022/08/08 12:29:32;;;;;;;6.80;6.50;;;30.00;53.20;;;;;;5032779;28;20460;-78
2022/08/08 12:32:03;;;;;;;6.70;6.10;;;30.00;51.90;;;;;;5033585;28;20448;-77
2022/08/08 12:34:34;;;;;;;6.87;6.40;;;29.90;51.60;;;;;;5035314;28;20528;-78
2022/08/08 12:37:09;;;;;;;7.70;7.20;;;29.90;52.90;;;;;;5036133;28;20427;-78
2022/08/08 12:39:37;;;;;;;6.53;6.07;;;29.90;52.60;;;;;;5032994;28;20425;-78
2022/08/08 12:42:08;;;;;;;5.70;5.30;;;29.90;52.60;;;;;;4999373;28;20940;-78
2022/08/08 12:44:35;;;;;;;6.93;6.30;;;29.90;52.10;;;;;;5032775;28;20421;-78
2022/08/08 12:47:03;;;;;;;6.43;6.03;;;29.90;51.40;;;;;;5033682;28;20428;-78
2022/08/08 12:49:30;;;;;;;6.50;6.00;;;29.90;52.50;;;;;;5032493;28;20453;-77
2022/08/08 12:51:57;;;;;;;6.03;5.63;;;29.90;52.80;;;;;;5030818;28;20511;-78
2022/08/08 12:54:25;;;;;;;7.20;6.70;;;29.80;53.00;;;;;;5032429;28;20436;-77
2022/08/08 12:56:52;;;;;;;6.20;5.80;;;29.70;53.30;;;;;;5033317;28;20417;-77
2022/08/08 12:59:25;;;;;;;5.70;5.30;;;29.50;52.30;;;;;;5052754;28;20432;-76
2022/08/08 13:01:54;;;;;;;6.10;5.20;;;29.50;53.40;;;;;;5035641;28;20451;-78
2022/08/08 13:04:23;;;;;;;5.93;5.53;;;29.50;53.80;;;;;;5032539;28;20425;-75
2022/08/08 13:07:00;;;;;;;5.70;5.40;;;29.50;52.40;;;;;;5033103;28;20413;-77
2022/08/08 13:09:40;;;;;;;5.20;4.90;;;29.50;52.60;;;;;;5032229;28;20405;-78
2022/08/08 13:12:22;;;;;;;5.50;5.20;;;29.40;53.10;;;;;;5031452;28;20452;-77
2022/08/08 13:14:50;;;;;;;6.43;6.10;;;29.40;52.70;;;;;;5033011;28;20405;-78
2022/08/08 13:17:18;;;;;;;6.43;5.93;;;29.30;52.90;;;;;;5033905;28;20457;-77
2022/08/08 13:19:45;;;;;;;5.90;5.50;;;29.30;53.20;;;;;;5034258;28;20421;-77
2022/08/08 13:22:15;;;;;;;7.00;6.30;;;29.30;52.70;;;;;;5034019;28;20433;-78
2022/08/08 13:24:41;;;;;;;6.57;6.17;;;29.20;52.70;;;;;;5034206;28;20442;-71